Aérodrome :
LOGIN :

S'inscrire | Disclaimer

   EN    FR    IT 

 










Légende :    VFR   VFR Marginal   IFR   IFR Intensif   IFR Très Intensif
Visi : 
Plafond : 
>= 8 km
>= 3000ft
5 à 8 km
1000 à 3000 ft
1500m à 5 km
500 à 1000 ft
800 à 1500m
200 à 500 ft
< 800m
< 200 ft
Symboles :   Orages  Brouillard  Fortes neiges  Fortes précipitations  Vent > 20 kt
SIGMETs :   Divers  Orages  Givrage  Turbulence  Onde Orograph.  Cendres Volcan.







- Altitude de l'aérodrome : 776 ft
- Code IATA : RMS


ETAR - Ramstein Air Base

DERNIER METAR :
  • 190956Z 00000KT 9999 FEW120 15/12 A2994 RMK AO2A SLP144 T01450120 $

METARs EXPIRÉS :
  • 190856Z 00000KT 9999 CLR 12/11 A2995 RMK AO2A SLP148 T01160107 51008 $
  • 190756Z 00000KT 9999 CLR 09/09 A2995 RMK AO2A SLP149 T00880086 $

TAF TAF ETAR
Valide du 19 à 10h jusqu'au 20 à 16h UTC


191003Z 1910/2016 20009KT 9999 SKC QNH2986INS
BECMG 2008/2009 18009KT 9999 BKN080 QNH2988INS
BECMG 2011/2012 22012G20KT 8000 -SHRA BKN020 QNH2990INS TX22/1913Z TN04/2004Z
Pas de NOTAMs connus pour ce terrain.



MET'MAP, la Météo Aéronautique d'un coup d'oeil ! - Copyright ORBIFLY Décembre 2007 - Disclaimer

ORBIFLY MET'MAP TEAM :

Programmation & Développement : Alexandra Zaïnal
Conception & Développement : Baudouin d'Aumeries
Co-Programmation & Développement : Marc-Olivier Méhu
Soutien technique & logistique : Manuel Goepfert

Contact : metmap@orbifly.com




SOURCES & CREDITS :

   NOAA